Arabi, Georgia
Current Conditions -  °F | °C
As of 9:35 PM on Tuesday 21 Oct 2014 (Local Time) from KCKF Reporting Station
Clear Clear  
Wind Chill: 62°   Ceiling: Unl
Heat Index: 62°   Visibility: 10mi
Dew Point: 56°   Wind: 0mph
Humidity: 80%   Direction: NA
Pressure: 29.99"   Gusts: NA
Location:  31.83°N, 83.74°W
Report Text: KCKF 220135Z AUTO 00000KT 10SM CLR 17/13 A2999 RMK AO2 T01650131
Loading
Personal Weather Stations






























Interactive Weather Map
Tropical Storm Tracking
New forecast layout! Learn more

10-Day Weather Forecast

Advertisements
Track Severe Weather on mobile